createdAt,value
2022-09-28T00:01:15.000Z,98482.55
2022-09-28T00:03:20.214Z,98483.71
2022-09-28T00:05:25.696Z,98480.35
2022-09-28T00:07:45.913Z,98481.22
2022-09-28T00:12:26.524Z,98481.92
2022-09-28T00:14:32.469Z,98478.7
2022-09-28T00:16:38.176Z,98482.47
2022-09-28T00:18:43.806Z,98479.83
2022-09-28T00:20:49.254Z,98477.48
2022-09-28T00:22:54.767Z,98473.55
2022-09-28T00:25:00.380Z,98472.8
2022-09-28T00:27:05.706Z,98472.19
2022-09-28T00:29:11.027Z,98467.12
2022-09-28T00:31:16.766Z,98458.7
2022-09-28T00:33:22.512Z,98462.44
2022-09-28T00:35:27.763Z,98459.59
2022-09-28T00:37:33.422Z,98456.3
2022-09-28T00:39:39.819Z,98459
2022-09-28T00:41:45.212Z,98456.76
2022-09-28T00:43:50.587Z,98456.69
2022-09-28T00:45:56.321Z,98457.92
2022-09-28T00:48:02.305Z,98457.09
2022-09-28T00:50:07.580Z,98461
2022-09-28T00:52:13.433Z,98459.48
2022-09-28T00:54:18.870Z,98455.11
2022-09-28T00:56:24.411Z,98453.03
2022-09-28T00:58:30.068Z,98449.17
2022-09-28T01:00:35.593Z,98447.84
2022-09-28T01:02:41.119Z,98447.44
2022-09-28T01:04:46.192Z,98440.84
2022-09-28T01:06:51.489Z,98443.54
2022-09-28T01:08:56.899Z,98440.14
2022-09-28T01:11:02.320Z,98438.88
2022-09-28T01:13:07.543Z,98440.35
2022-09-28T01:15:12.917Z,98435.5
2022-09-28T01:17:21.221Z,98437.22
2022-09-28T01:19:26.602Z,98429.52
2022-09-28T01:21:31.857Z,98424.22
2022-09-28T01:23:40.454Z,98426.32
2022-09-28T01:25:45.704Z,98425.92
2022-09-28T01:27:50.848Z,98428.45
2022-09-28T01:29:59.452Z,98421.83
2022-09-28T01:32:04.674Z,98428.86
2022-09-28T01:34:09.955Z,98430.44
2022-09-28T01:36:18.391Z,98431.95
2022-09-28T01:38:23.622Z,98436.78
2022-09-28T01:40:29.563Z,98443.52
2022-09-28T01:42:35.166Z,98444.34
2022-09-28T01:44:40.755Z,98441.53
2022-09-28T01:46:46.104Z,98442.47
2022-09-28T01:48:51.204Z,98444.13
2022-09-28T01:50:56.563Z,98443.39
2022-09-28T01:53:01.614Z,98445.12
2022-09-28T01:55:06.952Z,98447.46
2022-09-28T01:57:12.615Z,98444.55
2022-09-28T01:59:18.160Z,98438.88
2022-09-28T02:01:23.716Z,98436.8
2022-09-28T02:03:29.321Z,98433.83
2022-09-28T02:05:35.783Z,98442.5
2022-09-28T02:07:41.057Z,98440.04
2022-09-28T02:09:46.437Z,98434.27
2022-09-28T02:11:52.260Z,98429.83
2022-09-28T02:13:57.805Z,98428.66
2022-09-28T02:16:05.088Z,98427.06
2022-09-28T02:18:10.727Z,98429.97
2022-09-28T02:20:16.188Z,98431.38
2022-09-28T02:22:22.330Z,98430.88
2022-09-28T02:24:29.244Z,98430.7
2022-09-28T02:26:34.468Z,98432.16
2022-09-28T02:28:39.615Z,98434.74
2022-09-28T02:30:45.151Z,98435.28
2022-09-28T02:32:50.358Z,98439.02
2022-09-28T02:34:55.892Z,98438.64
2022-09-28T02:37:01.380Z,98438.98
2022-09-28T02:39:06.803Z,98442.24
2022-09-28T02:41:12.282Z,98440.25
2022-09-28T02:43:17.791Z,98441.11
2022-09-28T02:45:23.149Z,98440.38
2022-09-28T02:47:29.297Z,98440.49
2022-09-28T02:49:35.041Z,98440.7
2022-09-28T02:51:41.898Z,98438.08
2022-09-28T02:53:47.642Z,98439.23
2022-09-28T02:55:53.207Z,98440.16
2022-09-28T02:57:58.507Z,98435
2022-09-28T03:00:04.128Z,98434.75
2022-09-28T03:02:10.020Z,98434.16
2022-09-28T03:04:15.585Z,98431.55
2022-09-28T03:06:21.076Z,98426.61
2022-09-28T03:08:26.447Z,98432.36
2022-09-28T03:10:32.029Z,98432.07
2022-09-28T03:12:37.203Z,98438.63
2022-09-28T03:14:43.395Z,98439.42
2022-09-28T03:16:51.921Z,98439.28
2022-09-28T03:18:57.995Z,98437.68
2022-09-28T03:21:03.369Z,98437.06
2022-09-28T03:23:25.990Z,98435.13
2022-09-28T03:25:31.354Z,98435.2
2022-09-28T03:27:37.944Z,98439.02
2022-09-28T03:29:43.224Z,98439.73
2022-09-28T03:31:48.637Z,98438.58
2022-09-28T03:33:54.333Z,98444.13
2022-09-28T03:35:59.609Z,98444.32
2022-09-28T03:38:04.910Z,98446.78
2022-09-28T03:40:10.015Z,98447.02
2022-09-28T03:42:17.335Z,98444.72
2022-09-28T03:44:22.754Z,98440.34
2022-09-28T03:46:28.247Z,98445.17
2022-09-28T03:48:34.470Z,98445.08
2022-09-28T03:50:39.887Z,98447.1
2022-09-28T03:52:45.240Z,98448.7
2022-09-28T03:54:50.764Z,98443.25
2022-09-28T03:56:57.032Z,98440.41
2022-09-28T03:59:02.557Z,98443.01
2022-09-28T04:01:09.224Z,98446.14
2022-09-28T04:03:22.071Z,98448.01
2022-09-28T04:05:27.458Z,98458.69
2022-09-28T04:07:33.216Z,98461.23
2022-09-28T04:09:38.522Z,98459.27
2022-09-28T04:12:04.643Z,98461.12
2022-09-28T04:14:11.413Z,98462.33
2022-09-28T04:16:16.862Z,98460.26
2022-09-28T04:18:22.507Z,98457.95
2022-09-28T04:20:28.365Z,98454.05
2022-09-28T04:22:33.819Z,98453.12
2022-09-28T04:24:39.376Z,98452.37
2022-09-28T04:26:45.087Z,98452.46
2022-09-28T04:28:50.477Z,98449.15
2022-09-28T04:30:55.550Z,98449.19
2022-09-28T04:33:01.220Z,98456.97
2022-09-28T04:35:06.341Z,98457.34
2022-09-28T04:37:13.482Z,98447.28
2022-09-28T04:39:22.114Z,98445.88
2022-09-28T04:41:27.380Z,98444.29
2022-09-28T04:43:32.892Z,98449.17
2022-09-28T04:45:40.666Z,98450.05
2022-09-28T04:47:47.158Z,98453.74
2022-09-28T04:49:53.168Z,98453.13
2022-09-28T04:51:59.117Z,98458.59
2022-09-28T04:54:05.353Z,98459.65
2022-09-28T04:56:11.180Z,98456.36
2022-09-28T04:58:18.800Z,98456.25
2022-09-28T05:00:25.657Z,98453.27
2022-09-28T05:02:32.255Z,98452.26
2022-09-28T05:04:39.033Z,98449.95
2022-09-28T05:06:45.331Z,98452.17
2022-09-28T05:08:51.065Z,98447.23
2022-09-28T05:10:57.221Z,98450.53
2022-09-28T05:13:05.955Z,98450.6
2022-09-28T05:15:12.519Z,98448.45
2022-09-28T05:17:18.702Z,98451.34
2022-09-28T05:19:25.168Z,98443.99
2022-09-28T05:21:31.297Z,98445.8
2022-09-28T05:23:36.898Z,98447.28
2022-09-28T05:25:42.371Z,98455.02
2022-09-28T05:27:48.286Z,98450.61
2022-09-28T05:29:54.019Z,98452.48
2022-09-28T05:31:59.922Z,98449.59
2022-09-28T05:34:05.998Z,98452.59
2022-09-28T05:36:12.083Z,98455.67
2022-09-28T05:38:18.468Z,98461.53
2022-09-28T05:40:24.768Z,98462.81
2022-09-28T05:42:31.176Z,98468.27
2022-09-28T05:44:37.384Z,98465.8
2022-09-28T05:46:43.190Z,98469.75
2022-09-28T05:48:49.574Z,98475.34
2022-09-28T05:50:55.852Z,98477.84
2022-09-28T05:53:01.436Z,98480.84
2022-09-28T05:55:08.084Z,98481.86
2022-09-28T05:57:14.143Z,98487.83
2022-09-28T05:59:20.902Z,98490.48
2022-09-28T06:01:28.005Z,98490.17
2022-09-28T06:03:34.799Z,98491.13
2022-09-28T06:05:41.153Z,98491.38
2022-09-28T06:07:47.256Z,98495.36
2022-09-28T06:09:53.025Z,98492.41
2022-09-28T06:11:58.809Z,98493.97
2022-09-28T06:14:04.471Z,98495.32
2022-09-28T06:16:10.279Z,98501.21
2022-09-28T06:18:16.554Z,98501.44
2022-09-28T06:20:22.602Z,98504.24
2022-09-28T06:22:28.717Z,98496.97
2022-09-28T06:24:34.682Z,98498.87
2022-09-28T06:26:40.959Z,98497.01
2022-09-28T06:28:47.051Z,98495.84
2022-09-28T06:30:53.666Z,98503.81
2022-09-28T06:33:00.131Z,98506.34
2022-09-28T06:35:07.243Z,98504.11
2022-09-28T06:37:14.398Z,98505.81
2022-09-28T06:39:20.563Z,98507.8
2022-09-28T06:41:26.569Z,98505.19
2022-09-28T06:43:35.742Z,98501.95
2022-09-28T06:45:41.926Z,98506.66
2022-09-28T06:47:47.869Z,98505.06
2022-09-28T06:49:53.299Z,98506.13
2022-09-28T06:51:59.092Z,98510.3
2022-09-28T06:54:05.401Z,98510.83
2022-09-28T06:56:12.874Z,98514.36
2022-09-28T06:58:19.202Z,98512.38
2022-09-28T07:00:25.033Z,98518.9
2022-09-28T07:02:30.881Z,98516.75
2022-09-28T07:04:36.678Z,98513.81
2022-09-28T07:06:42.923Z,98517.34
2022-09-28T07:09:20.786Z,98515.16
2022-09-28T07:11:45.737Z,98509.42
2022-09-28T07:13:53.163Z,98511.63
2022-09-28T07:15:59.455Z,98507.7
2022-09-28T07:18:05.921Z,98509.98
2022-09-28T07:20:20.501Z,98508.78
2022-09-28T07:22:43.812Z,98505.91
2022-09-28T07:24:50.702Z,98514.13
2022-09-28T07:26:57.204Z,98514.53
2022-09-28T07:29:03.777Z,98514.52
2022-09-28T07:31:10.322Z,98516.26
2022-09-28T07:33:17.186Z,98516.28
2022-09-28T07:35:23.477Z,98522.95
2022-09-28T07:37:29.578Z,98519.34
2022-09-28T07:39:37.074Z,98517.96
2022-09-28T07:41:42.898Z,98523.86
2022-09-28T07:43:49.027Z,98522.94
2022-09-28T07:45:55.861Z,98526.32
2022-09-28T07:48:02.013Z,98528.2
2022-09-28T07:50:08.634Z,98532.88
2022-09-28T07:52:14.460Z,98534.36
2022-09-28T07:54:20.523Z,98536.39
2022-09-28T07:56:26.152Z,98529.27
2022-09-28T07:58:31.947Z,98529.62
2022-09-28T08:00:38.576Z,98529.2
2022-09-28T08:02:44.986Z,98525.84
2022-09-28T08:04:52.203Z,98529.75
2022-09-28T08:06:59.783Z,98527.21
2022-09-28T08:09:05.910Z,98535.27
2022-09-28T08:11:12.507Z,98533.96
2022-09-28T08:13:18.185Z,98531.94
2022-09-28T08:15:30.505Z,98537.05
2022-09-28T08:17:36.611Z,98543.97
2022-09-28T08:19:42.674Z,98536.14
2022-09-28T08:21:48.997Z,98537.42
2022-09-28T08:23:55.668Z,98529.7
2022-09-28T08:26:01.378Z,98529.86
2022-09-28T08:28:07.160Z,98529.48
2022-09-28T08:30:13.979Z,98537.23
2022-09-28T08:32:20.622Z,98535.08
2022-09-28T08:34:28.228Z,98532.63
2022-09-28T08:36:33.887Z,98534.34
2022-09-28T08:38:39.892Z,98533.7
2022-09-28T08:40:46.685Z,98533.48
2022-09-28T08:42:53.268Z,98538.93
2022-09-28T08:44:59.113Z,98535.43
2022-09-28T08:47:05.068Z,98536.05
2022-09-28T08:49:28.538Z,98529.2
2022-09-28T08:51:34.603Z,98530.06
2022-09-28T08:53:40.774Z,98524.33
2022-09-28T08:55:47.100Z,98520.33
2022-09-28T08:57:53.592Z,98523.06
2022-09-28T09:00:00.274Z,98522.19
2022-09-28T09:02:07.047Z,98522.04
2022-09-28T09:04:13.145Z,98527.36
2022-09-28T09:06:20.274Z,98526.84
2022-09-28T09:08:26.951Z,98532.24
2022-09-28T09:10:33.472Z,98529.33
2022-09-28T09:12:39.704Z,98528.39
2022-09-28T09:14:46.541Z,98530.33
2022-09-28T09:16:59.920Z,98538.19
2022-09-28T09:19:08.690Z,98540.27
2022-09-28T09:21:16.533Z,98534.71
2022-09-28T09:23:22.900Z,98537.14
2022-09-28T09:25:28.750Z,98534.19
2022-09-28T09:27:38.670Z,98531.3
2022-09-28T09:29:45.025Z,98538.36
2022-09-28T09:31:54.400Z,98536.64
2022-09-28T09:34:00.532Z,98533.83
2022-09-28T09:36:07.091Z,98533.92
2022-09-28T09:38:13.589Z,98538.3
2022-09-28T09:40:22.574Z,98537.19
2022-09-28T09:42:28.913Z,98533.62
2022-09-28T09:44:35.523Z,98528.2
2022-09-28T09:46:43.437Z,98530.94
2022-09-28T09:48:49.589Z,98536.99
2022-09-28T09:50:55.958Z,98536.39
2022-09-28T09:53:02.081Z,98536.27
2022-09-28T09:55:08.148Z,98540.25
2022-09-28T09:57:14.722Z,98543.01
2022-09-28T09:59:21.066Z,98543.59
2022-09-28T10:01:26.639Z,98544.98
2022-09-28T10:03:32.409Z,98542.89
2022-09-28T10:05:38.766Z,98549.72
2022-09-28T10:07:45.122Z,98543.47
2022-09-28T10:09:51.481Z,98543.02
2022-09-28T10:11:58.061Z,98552.96
2022-09-28T10:14:04.208Z,98555.96
2022-09-28T10:16:10.707Z,98560.02
2022-09-28T10:18:16.931Z,98560.69
2022-09-28T10:20:23.049Z,98561.41
2022-09-28T10:22:28.269Z,98560.44
2022-09-28T10:24:34.416Z,98553.63
2022-09-28T10:26:39.863Z,98558.25
2022-09-28T10:28:45.449Z,98551.75
2022-09-28T10:30:51.224Z,98552.69
2022-09-28T10:32:57.394Z,98546.63
2022-09-28T10:35:03.634Z,98548.97
2022-09-28T10:37:09.890Z,98548.67
2022-09-28T10:39:16.326Z,98555.94
2022-09-28T10:41:22.344Z,98550.83
2022-09-28T10:43:28.031Z,98552.91
2022-09-28T10:45:33.746Z,98547.02
2022-09-28T10:47:39.355Z,98546.58
2022-09-28T10:49:48.431Z,98544.69
2022-09-28T10:51:54.022Z,98547.41
2022-09-28T10:54:00.938Z,98548.17
2022-09-28T10:56:07.010Z,98546.81
2022-09-28T10:58:12.997Z,98548.23
2022-09-28T11:00:19.198Z,98546.73
2022-09-28T11:02:25.996Z,98544.66
2022-09-28T11:04:38.530Z,98541.8
2022-09-28T11:06:45.558Z,98540.73
2022-09-28T11:08:52.477Z,98535.91
2022-09-28T11:10:58.823Z,98531.95
2022-09-28T11:13:05.492Z,98528.33
2022-09-28T11:15:11.877Z,98533.4
2022-09-28T11:17:17.451Z,98535.16
2022-09-28T11:19:23.671Z,98536.02
2022-09-28T11:21:29.945Z,98543.48
2022-09-28T11:23:35.342Z,98536.64
2022-09-28T11:25:41.085Z,98537.52
2022-09-28T11:27:47.087Z,98543.38
2022-09-28T11:29:53.428Z,98553.22
2022-09-28T11:31:59.458Z,98544.56
2022-09-28T11:34:05.725Z,98546.77
2022-09-28T11:36:12.446Z,98546.03
2022-09-28T11:38:18.187Z,98544.07
2022-09-28T11:40:24.445Z,98548.55
2022-09-28T11:42:30.839Z,98552.13
2022-09-28T11:44:36.961Z,98554.11
2022-09-28T11:46:42.995Z,98556.73
2022-09-28T11:48:49.410Z,98555.59
2022-09-28T11:50:55.626Z,98556.55
2022-09-28T11:53:01.844Z,98555.91
2022-09-28T11:55:08.467Z,98561.99
2022-09-28T11:57:17.765Z,98562.27
2022-09-28T11:59:23.739Z,98568.69
2022-09-28T12:01:29.730Z,98581.67
2022-09-28T12:03:36.210Z,98599.27
2022-09-28T12:05:42.397Z,98610
2022-09-28T12:07:48.372Z,98601.2
2022-09-28T12:09:54.827Z,98588.27
2022-09-28T12:12:01.209Z,98587.19
2022-09-28T12:14:09.220Z,98582.35
2022-09-28T12:17:04.604Z,98581.68
2022-09-28T12:19:13.855Z,98581.94
2022-09-28T12:21:22.993Z,98580.72
2022-09-28T12:23:29.898Z,98575.6
2022-09-28T12:25:36.334Z,98575.7
2022-09-28T12:27:45.221Z,98572.66
2022-09-28T12:29:54.279Z,98569.82
2022-09-28T12:32:03.223Z,98575.66
2022-09-28T12:34:11.969Z,98573.2
2022-09-28T12:36:18.733Z,98574.42
2022-09-28T12:38:26.531Z,98572.88
2022-09-28T12:40:33.170Z,98576.44
2022-09-28T12:42:39.873Z,98577.19
2022-09-28T12:44:46.324Z,98571.77
2022-09-28T12:46:56.344Z,98563.88
2022-09-28T12:52:51.637Z,98551.27
2022-09-28T12:55:07.075Z,98553.87
2022-09-28T12:57:14.137Z,98555.55
2022-09-28T12:59:20.461Z,98551.47
2022-09-28T13:01:27.378Z,98550.91
2022-09-28T13:03:34.214Z,98552.38
2022-09-28T13:05:43.475Z,98546.75
2022-09-28T13:07:51.372Z,98546.34
2022-09-28T13:10:00.652Z,98544.56
2022-09-28T13:12:09.095Z,98541.7
2022-09-28T13:14:15.908Z,98541.56
2022-09-28T13:16:22.438Z,98537.56
2022-09-28T13:18:29.409Z,98535.64
2022-09-28T13:20:37.065Z,98538.64
2022-09-28T13:22:47.449Z,98539.44
2022-09-28T13:24:53.717Z,98536.28
2022-09-28T13:26:59.999Z,98543.25
2022-09-28T13:29:12.067Z,98542.67
2022-09-28T13:31:18.668Z,98542.13
2022-09-28T13:33:24.980Z,98540.69
2022-09-28T13:35:34.057Z,98544
2022-09-28T13:37:43.137Z,98544.16
2022-09-28T13:39:49.676Z,98538.72
2022-09-28T13:41:56.284Z,98538.09
2022-09-28T13:44:04.108Z,98534.85
2022-09-28T13:46:10.793Z,98537.36
2022-09-28T13:48:17.390Z,98539.29
2022-09-28T13:50:25.566Z,98533.58
2022-09-28T13:52:31.875Z,98534.72
2022-09-28T13:54:43.264Z,98533.94
2022-09-28T13:56:49.776Z,98532.55
2022-09-28T13:58:56.979Z,98532.42
2022-09-28T14:01:06.248Z,98527.82
2022-09-28T14:03:15.820Z,98523.02
2022-09-28T14:05:25.174Z,98523.72
2022-09-28T14:07:32.775Z,98524.84
2022-09-28T14:09:39.251Z,98522.12
2022-09-28T14:11:45.208Z,98527.86
2022-09-28T14:13:55.494Z,98527.6
2022-09-28T14:16:01.626Z,98528.3
2022-09-28T14:18:07.973Z,98531.39
2022-09-28T14:20:14.578Z,98533.47
2022-09-28T14:22:21.370Z,98534.25
2022-09-28T14:24:28.087Z,98531.08
2022-09-28T14:26:38.011Z,98528.06
2022-09-28T14:28:44.608Z,98530.18
2022-09-28T14:30:53.643Z,98527.3
2022-09-28T14:33:00.972Z,98529.65
2022-09-28T14:35:08.673Z,98536.53
2022-09-28T14:37:22.585Z,98534.92
2022-09-28T14:39:29.140Z,98534.77
2022-09-28T14:41:35.605Z,98541.52
2022-09-28T14:43:42.187Z,98542.86
2022-09-28T14:45:48.861Z,98540.27
2022-09-28T14:47:55.874Z,98540.56
2022-09-28T14:50:02.697Z,98537.77
2022-09-28T14:52:09.508Z,98538
2022-09-28T14:54:17.573Z,98534.45
2022-09-28T14:56:26.150Z,98532.92
2022-09-28T14:58:37.954Z,98527.72
2022-09-28T15:00:44.510Z,98526.16
2022-09-28T15:02:51.410Z,98527.89
2022-09-28T15:04:59.036Z,98537.26
2022-09-28T15:07:10.567Z,98540.88
2022-09-28T15:09:16.745Z,98538.57
2022-09-28T15:11:23.419Z,98534.83
2022-09-28T15:13:29.635Z,98542.75
2022-09-28T15:15:35.737Z,98546.88
2022-09-28T15:17:41.842Z,98551.84
2022-09-28T15:19:50.783Z,98553.45
2022-09-28T15:21:56.875Z,98550.16
2022-09-28T15:24:03.239Z,98548.2
2022-09-28T15:26:12.694Z,98544.98
2022-09-28T15:28:19.195Z,98542.88
2022-09-28T15:30:29.753Z,98550.67
2022-09-28T15:32:38.737Z,98555.92
2022-09-28T15:34:45.986Z,98560.3
2022-09-28T15:36:53.775Z,98566.44
2022-09-28T15:39:00.034Z,98566.55
2022-09-28T15:41:07.198Z,98566.05
2022-09-28T15:43:14.033Z,98561.89
2022-09-28T15:45:24.079Z,98552.89
2022-09-28T15:47:31.060Z,98550.23
2022-09-28T15:49:40.941Z,98556.22
2022-09-28T15:51:49.266Z,98553.62
2022-09-28T15:53:55.946Z,98559.68
2022-09-28T15:56:05.209Z,98563.53
2022-09-28T15:58:11.699Z,98563.82
2022-09-28T16:00:21.146Z,98562.41
2022-09-28T16:02:28.105Z,98556.3
2022-09-28T16:04:44.680Z,98550.85
2022-09-28T16:06:53.109Z,98550.13
2022-09-28T16:09:03.020Z,98543.8
2022-09-28T16:11:09.879Z,98538.44
2022-09-28T16:13:16.441Z,98536.63
2022-09-28T16:15:23.201Z,98534.61
2022-09-28T16:17:29.523Z,98534.31
2022-09-28T16:19:36.148Z,98540.66
2022-09-28T16:21:42.461Z,98536.89
2022-09-28T16:23:50.995Z,98535.58
2022-09-28T16:25:59.042Z,98538.72
2022-09-28T16:28:06.575Z,98536.27
2022-09-28T16:30:15.356Z,98535.56
2022-09-28T16:32:26.188Z,98533.35
2022-09-28T16:34:32.811Z,98527.03
2022-09-28T16:36:39.697Z,98528.09
2022-09-28T16:38:46.462Z,98525.26
2022-09-28T16:40:52.782Z,98525.5
2022-09-28T16:42:59.676Z,98524.16
2022-09-28T16:45:08.782Z,98526.31
2022-09-28T16:47:15.546Z,98525.67
2022-09-28T16:49:25.357Z,98523.69
2022-09-28T16:51:33.449Z,98520.7
2022-09-28T16:53:40.298Z,98515.63
2022-09-28T16:55:46.806Z,98525.61
2022-09-28T16:57:53.525Z,98524.11
2022-09-28T17:00:01.457Z,98527.77
2022-09-28T17:02:08.004Z,98524.91
2022-09-28T17:04:49.266Z,98523.13
2022-09-28T17:06:55.533Z,98529.75
2022-09-28T17:09:01.866Z,98526.3
2022-09-28T17:11:23.601Z,98526.16
2022-09-28T17:13:30.594Z,98521.55
2022-09-28T17:15:37.261Z,98517.23
2022-09-28T17:17:44.005Z,98513.13
2022-09-28T17:19:51.583Z,98507.37
2022-09-28T17:21:58.731Z,98509.71
2022-09-28T17:24:07.611Z,98503.7
2022-09-28T17:26:14.186Z,98504.67
2022-09-28T17:28:20.802Z,98503.69
2022-09-28T17:30:27.600Z,98506.05
2022-09-28T17:32:34.174Z,98505.8
2022-09-28T17:34:42.167Z,98506.61
2022-09-28T17:37:10.330Z,98505.53
2022-09-28T17:39:16.539Z,98508.29
2022-09-28T17:41:25.536Z,98510.07
2022-09-28T17:43:35.588Z,98508.25
2022-09-28T17:45:42.351Z,98510.98
2022-09-28T17:47:48.713Z,98504.95
2022-09-28T17:49:55.202Z,98495.44
2022-09-28T17:52:01.594Z,98494.77
2022-09-28T17:54:08.063Z,98494.63
2022-09-28T17:56:14.889Z,98503.27
2022-09-28T17:58:21.123Z,98511.22
2022-09-28T18:00:28.165Z,98524.06
2022-09-28T18:02:34.950Z,98532.14
2022-09-28T18:04:53.931Z,98541.77
2022-09-28T18:07:01.680Z,98550.27
2022-09-28T18:09:08.444Z,98554.48
2022-09-28T18:11:15.109Z,98558.8
2022-09-28T18:13:21.294Z,98565.38
2022-09-28T18:15:28.700Z,98570.16
2022-09-28T18:17:35.366Z,98573.27
2022-09-28T18:19:41.806Z,98577.88
2022-09-28T18:21:48.484Z,98582.38
2022-09-28T18:23:54.791Z,98596.2
2022-09-28T18:26:01.270Z,98598.13
2022-09-28T18:28:07.778Z,98604.91
2022-09-28T18:30:15.259Z,98603.2
2022-09-28T18:32:21.731Z,98611.08
2022-09-28T18:34:28.049Z,98615.33
2022-09-28T18:36:34.672Z,98621.11
2022-09-28T18:38:42.688Z,98624.72
2022-09-28T18:40:49.225Z,98624.43
2022-09-28T18:42:56.126Z,98628.27
2022-09-28T18:45:03.072Z,98635.88
2022-09-28T18:47:10.271Z,98638.11
2022-09-28T18:49:18.292Z,98644.91
2022-09-28T18:51:26.040Z,98652.34
2022-09-28T18:53:33.152Z,98652.11
2022-09-28T18:55:41.646Z,98656.92
2022-09-28T18:57:48.641Z,98654.03
2022-09-28T18:59:57.341Z,98652.55
2022-09-28T19:02:04.065Z,98652.22
2022-09-28T19:04:10.784Z,98656.97
2022-09-28T19:06:18.911Z,98650.36
2022-09-28T19:08:29.452Z,98646.33
2022-09-28T19:10:36.126Z,98638.91
2022-09-28T19:12:43.123Z,98633.03
2022-09-28T19:14:51.433Z,98629.81
2022-09-28T19:16:58.808Z,98629.83
2022-09-28T19:19:06.111Z,98632.78
2022-09-28T19:21:18.169Z,98634.28
2022-09-28T19:23:26.149Z,98639.94
2022-09-28T19:25:32.961Z,98634.14
2022-09-28T19:27:41.380Z,98634.97
2022-09-28T19:29:48.520Z,98630.34
2022-09-28T19:31:55.568Z,98629.05
2022-09-28T19:34:06.170Z,98623.16
2022-09-28T19:36:21.233Z,98613.89
2022-09-28T19:38:29.037Z,98606.72
2022-09-28T19:40:35.722Z,98600.55
2022-09-28T19:42:43.485Z,98584.58
2022-09-28T19:44:50.260Z,98581.69
2022-09-28T19:46:57.122Z,98581.78
2022-09-28T19:49:03.769Z,98586.73
2022-09-28T19:51:10.375Z,98582.36
2022-09-28T19:53:17.005Z,98583.35
2022-09-28T19:55:24.702Z,98582.7
2022-09-28T19:57:31.505Z,98583.15
2022-09-28T19:59:38.958Z,98584.16
2022-09-28T20:01:46.212Z,98583.42
2022-09-28T20:03:53.547Z,98588
2022-09-28T20:06:00.304Z,98584.75
2022-09-28T20:08:07.389Z,98583.31
2022-09-28T20:10:14.408Z,98583.41
2022-09-28T20:12:21.552Z,98582.09
2022-09-28T20:14:38.146Z,98583.51
2022-09-28T20:16:47.820Z,98583.94
2022-09-28T20:18:54.311Z,98582.25
2022-09-28T20:21:00.816Z,98583.92
2022-09-28T20:23:07.946Z,98584.32
2022-09-28T20:25:14.487Z,98583.49
2022-09-28T20:27:26.409Z,98583.58
2022-09-28T20:29:35.258Z,98584.73
2022-09-28T20:31:42.638Z,98581.74
2022-09-28T20:33:49.435Z,98587.79
2022-09-28T20:35:55.740Z,98585.29
2022-09-28T20:38:02.486Z,98584.98
2022-09-28T20:40:08.647Z,98579.13
2022-09-28T20:42:15.236Z,98577.55
2022-09-28T20:44:22.343Z,98578.36
2022-09-28T20:46:28.743Z,98575.75
2022-09-28T20:48:35.266Z,98588.16
2022-09-28T20:50:41.687Z,98584.22
2022-09-28T20:52:48.662Z,98584.13
2022-09-28T20:54:54.512Z,98582.28
2022-09-28T20:57:01.199Z,98587.21
2022-09-28T20:59:07.639Z,98586.85
2022-09-28T21:01:14.119Z,98588.53
2022-09-28T21:03:20.351Z,98596.31
2022-09-28T21:05:28.311Z,98594.75
2022-09-28T21:07:36.231Z,98594.77
2022-09-28T21:09:42.370Z,98600.69
2022-09-28T21:11:48.450Z,98599.98
2022-09-28T21:13:54.814Z,98600.03
2022-09-28T21:16:00.935Z,98598.41
2022-09-28T21:18:07.730Z,98598.16
2022-09-28T21:20:14.171Z,98599.8
2022-09-28T21:22:20.753Z,98600
2022-09-28T21:24:27.882Z,98600
2022-09-28T21:26:34.211Z,98602
2022-09-28T21:28:39.843Z,98605.98
2022-09-28T21:30:45.954Z,98609.19
2022-09-28T21:32:52.154Z,98609.09
2022-09-28T21:34:58.021Z,98612.42
2022-09-28T21:37:03.161Z,98612.52
2022-09-28T21:39:11.832Z,98611.03
2022-09-28T21:41:17.120Z,98607.77
2022-09-28T21:43:22.652Z,98611.5
2022-09-28T21:45:28.499Z,98610.16
2022-09-28T21:47:34.379Z,98618.02
2022-09-28T21:49:39.578Z,98622.27
2022-09-28T21:51:45.110Z,98621.8
2022-09-28T21:53:50.587Z,98626.41
2022-09-28T21:55:55.939Z,98633.9
2022-09-28T21:58:01.146Z,98639.9
2022-09-28T22:00:07.582Z,98643.84
2022-09-28T22:02:13.238Z,98642.17
2022-09-28T22:04:18.674Z,98646.33
2022-09-28T22:06:24.385Z,98645.8
2022-09-28T22:08:29.792Z,98644.28
2022-09-28T22:10:35.253Z,98644
2022-09-28T22:12:40.461Z,98642.5
2022-09-28T22:14:45.673Z,98645.89
2022-09-28T22:16:51.531Z,98648.63
2022-09-28T22:18:57.039Z,98648.2
2022-09-28T22:21:02.261Z,98640.13
2022-09-28T22:23:07.553Z,98645.28
2022-09-28T22:25:12.918Z,98636.23
2022-09-28T22:27:19.500Z,98635.39
2022-09-28T22:29:25.583Z,98640.2
2022-09-28T22:31:31.449Z,98639.41
2022-09-28T22:33:37.046Z,98637.02
2022-09-28T22:35:42.121Z,98636.72
2022-09-28T22:37:47.509Z,98643.96
2022-09-28T22:39:53.132Z,98649.64
2022-09-28T22:41:58.789Z,98658.48
2022-09-28T22:44:04.049Z,98656.13
2022-09-28T22:46:09.789Z,98651.85
2022-09-28T22:48:15.643Z,98649.57
2022-09-28T22:50:23.687Z,98653.13
2022-09-28T22:52:28.822Z,98658.87
2022-09-28T22:54:34.523Z,98661.28
2022-09-28T22:56:43.370Z,98666.91
2022-09-28T22:58:48.531Z,98658.41
2022-09-28T23:00:54.069Z,98660.06
2022-09-28T23:03:00.029Z,98667.73
2022-09-28T23:05:05.364Z,98661.89
2022-09-28T23:07:10.728Z,98659.8
2022-09-28T23:09:16.421Z,98657.19
2022-09-28T23:11:21.915Z,98659.39
2022-09-28T23:13:27.163Z,98663.73
2022-09-28T23:15:32.555Z,98666.65
2022-09-28T23:17:39.122Z,98669.17
2022-09-28T23:19:44.379Z,98663.63
2022-09-28T23:21:49.578Z,98669.08
2022-09-28T23:23:55.146Z,98672.31
2022-09-28T23:26:00.586Z,98671.65
2022-09-28T23:28:07.073Z,98679.83
2022-09-28T23:30:12.588Z,98683.22
2022-09-28T23:32:17.935Z,98676.48
2022-09-28T23:34:23.588Z,98683.58
2022-09-28T23:36:28.852Z,98691.05
2022-09-28T23:38:34.246Z,98692.84
2022-09-28T23:40:40.135Z,98698.38
2022-09-28T23:42:45.818Z,98702.58
2022-09-28T23:44:51.249Z,98698.45
2022-09-28T23:46:56.753Z,98709.66
2022-09-28T23:49:02.184Z,98711.75
2022-09-28T23:51:07.817Z,98712.3
2022-09-28T23:53:12.895Z,98706.48
2022-09-28T23:55:18.320Z,98707.38
2022-09-28T23:57:23.833Z,98706.69
2022-09-28T23:59:28.950Z,98701.36
